Time;durP1;ratioP1;P1;durP2;ratioP2;P2;SDS_P1;SDS_P2;PMS_P1;PMS_P2;Temp;Humidity;BMP_temperature;BMP_pressure;BME280_temperature;BME280_humidity;BME280_pressure;Samples;Min_cycle;Max_cycle;Signal;HPM_P1;HPM_P2
2022/10/02 04:02:56;;;;;;;3.75;2.90;;;13.00;99.90;;;;;;4942596;28;20446;-85
2022/10/02 04:05:26;;;;;;;3.00;2.70;;;13.00;99.90;;;;;;4943206;28;20427;-86
2022/10/02 04:08:13;;;;;;;4.33;2.63;;;13.20;99.90;;;;;;4953014;28;20421;-86
2022/10/02 04:10:56;;;;;;;5.63;2.75;;;13.10;99.90;;;;;;4942795;28;20393;-85
2022/10/02 04:13:31;;;;;;;4.43;3.00;;;13.00;99.90;;;;;;4929879;29;20407;-85
2022/10/02 04:16:00;;;;;;;5.95;3.05;;;13.10;99.90;;;;;;4934283;29;20896;-85
2022/10/02 04:18:36;;;;;;;5.05;3.50;;;13.10;99.90;;;;;;4934235;29;20407;-85
2022/10/02 04:21:23;;;;;;;8.35;4.63;;;13.20;99.90;;;;;;4932766;29;20489;-85
2022/10/02 04:23:54;;;;;;;6.15;4.10;;;12.90;99.90;;;;;;4923987;28;20414;-84
2022/10/02 04:26:29;;;;;;;5.00;3.63;;;13.10;99.90;;;;;;4918766;29;20463;-85
2022/10/02 04:28:59;;;;;;;3.85;3.50;;;;;;;;;;4922335;29;20881;-85
2022/10/02 04:31:26;;;;;;;4.47;3.60;;;;;;;;;;4929631;29;20384;-85
2022/10/02 04:33:58;;;;;;;4.63;3.65;;;12.90;99.90;;;;;;4933943;29;20391;-85
2022/10/02 04:36:39;;;;;;;4.22;3.80;;;13.20;99.90;;;;;;4934082;29;20400;-84
2022/10/02 04:39:04;;;;;;;5.38;3.70;;;13.10;99.90;;;;;;4933678;29;20400;-84
2022/10/02 04:41:43;;;;;;;5.53;3.70;;;13.10;99.90;;;;;;4948249;28;20951;-85
2022/10/02 04:44:22;;;;;;;4.75;3.80;;;13.00;99.90;;;;;;4933692;29;20392;-85
2022/10/02 04:47:33;;;;;;;5.20;3.00;;;13.00;99.90;;;;;;4955519;28;21035;-85
2022/10/02 04:50:08;;;;;;;3.17;2.88;;;13.10;99.90;;;;;;4934333;28;20404;-86
2022/10/02 04:52:39;;;;;;;2.57;2.37;;;13.00;99.90;;;;;;4933991;29;20435;-86
2022/10/02 04:55:39;;;;;;;3.17;2.30;;;13.00;99.90;;;;;;4933740;29;20475;-86
2022/10/02 04:58:51;;;;;;;2.67;2.25;;;13.10;99.90;;;;;;4933960;29;20400;-85
2022/10/02 05:01:35;;;;;;;1.98;1.83;;;13.00;99.90;;;;;;4920589;28;20497;-85
2022/10/02 05:04:19;;;;;;;2.72;2.00;;;13.00;99.90;;;;;;4933472;29;20395;-85
2022/10/02 05:06:54;;;;;;;2.20;1.65;;;13.00;99.90;;;;;;4933776;29;20422;-87
2022/10/02 05:09:24;;;;;;;3.60;1.85;;;;;;;;;;4933655;29;20450;-85
2022/10/02 05:11:57;;;;;;;3.00;1.90;;;;;;;;;;4933557;29;20486;-87
2022/10/02 05:14:48;;;;;;;2.92;1.90;;;13.20;99.90;;;;;;4933412;29;20872;-87
2022/10/02 05:17:50;;;;;;;2.42;1.60;;;13.10;99.90;;;;;;4932439;28;20395;-86
2022/10/02 05:20:51;;;;;;;2.35;1.80;;;13.10;99.90;;;;;;4927844;29;20491;-88
2022/10/02 05:23:29;;;;;;;3.00;1.90;;;13.10;99.90;;;;;;4931082;29;20415;-87
2022/10/02 05:26:30;;;;;;;2.53;1.55;;;13.10;99.90;;;;;;4916630;29;20405;-87
2022/10/02 05:29:15;;;;;;;2.83;1.83;;;13.20;99.90;;;;;;4933546;29;20410;-89
2022/10/02 05:31:55;;;;;;;3.42;1.95;;;13.10;99.90;;;;;;4933128;29;20431;-89
2022/10/02 05:34:39;;;;;;;2.53;1.83;;;13.30;99.90;;;;;;4932881;29;20519;-87
2022/10/02 05:37:20;;;;;;;3.67;1.80;;;13.20;99.90;;;;;;4933102;29;20931;-89
2022/10/02 05:40:12;;;;;;;2.35;1.77;;;13.20;99.90;;;;;;4930398;29;20445;-88
2022/10/02 05:42:44;;;;;;;2.38;1.70;;;;;;;;;;4913740;29;20433;-87
2022/10/02 05:45:17;;;;;;;2.45;1.90;;;;;;;;;;4929142;29;20429;-86
2022/10/02 05:47:46;;;;;;;3.90;2.00;;;;;;;;;;4917708;29;20484;-88
2022/10/02 05:50:11;;;;;;;2.70;1.90;;;;;;;;;;4932827;29;20384;-86
2022/10/02 05:52:46;;;;;;;3.40;1.90;;;;;;;;;;4932926;29;20399;-88
2022/10/02 05:55:31;;;;;;;2.20;1.60;;;;;;;;;;4914036;29;20405;-87
2022/10/02 05:57:57;;;;;;;2.78;1.70;;;;;;;;;;4913188;29;20411;-87
2022/10/02 06:00:29;;;;;;;2.75;1.92;;;;;;;;;;4913963;29;20793;-85
2022/10/02 06:03:02;;;;;;;2.72;1.95;;;;;;;;;;4925959;29;20412;-87
2022/10/02 06:05:28;;;;;;;3.17;2.10;;;;;;;;;;4924790;29;20544;-87
2022/10/02 06:07:56;;;;;;;4.00;2.42;;;;;;;;;;4925360;29;20739;-88
2022/10/02 06:10:27;;;;;;;2.70;2.40;;;;;;;;;;4932458;29;20403;-88
2022/10/02 06:12:57;;;;;;;4.53;2.33;;;;;;;;;;4926512;29;20408;-88
2022/10/02 06:15:46;;;;;;;3.53;2.53;;;;;;;;;;4924542;29;20395;-87
2022/10/02 06:18:16;;;;;;;3.88;3.45;;;;;;;;;;4934987;28;20410;-89
2022/10/02 06:21:02;;;;;;;3.40;3.10;;;;;;;;;;4915265;29;20386;-88
2022/10/02 06:23:35;;;;;;;4.25;3.63;;;;;;;;;;4920581;28;20413;-89
2022/10/02 06:26:04;;;;;;;4.75;4.25;;;;;;;;;;4914414;29;20389;-87
2022/10/02 06:28:50;;;;;;;4.93;4.47;;;;;;;;;;4914394;29;20401;-88
2022/10/02 06:31:34;;;;;;;5.13;4.72;;;;;;;;;;4930674;28;20420;-91
2022/10/02 06:34:00;;;;;;;6.03;5.53;;;;;;;;;;4926258;28;20373;-90
2022/10/02 06:36:38;;;;;;;6.47;5.93;;;;;;;;;;4939059;28;20404;-89
2022/10/02 06:39:04;;;;;;;9.10;8.27;;;;;;;;;;4913660;29;20377;-88
2022/10/02 06:41:33;;;;;;;9.23;8.57;;;;;;;;;;4931091;29;20419;-89
2022/10/02 06:44:18;;;;;;;9.18;8.57;;;;;;;;;;4932260;29;20747;-90
2022/10/02 06:46:44;;;;;;;10.00;9.20;;;;;;;;;;4909438;29;20485;-89
2022/10/02 06:49:16;;;;;;;10.65;9.85;;;;;;;;;;4927897;28;20922;-89
2022/10/02 06:51:54;;;;;;;9.90;9.20;;;;;;;;;;4920693;29;20465;-86
2022/10/02 06:54:46;;;;;;;10.70;9.80;;;;;;;;;;4932502;29;20400;-90
2022/10/02 06:57:12;;;;;;;11.33;10.43;;;;;;;;;;4981165;28;20384;-91
2022/10/02 06:59:38;;;;;;;11.10;10.20;;;;;;;;;;4945257;29;20404;-91
2022/10/02 07:02:21;;;;;;;11.88;11.07;;;;;;;;;;4928798;29;20421;-91
2022/10/02 07:04:53;;;;;;;12.07;11.00;;;;;;;;;;4917488;29;20399;-91
2022/10/02 07:07:34;;;;;;;11.02;10.23;;;;;;;;;;4940575;28;20409;-90
2022/10/02 07:10:19;;;;;;;11.30;10.40;;;;;;;;;;4930549;29;20540;-91
2022/10/02 07:12:48;;;;;;;10.35;9.55;;;;;;;;;;4950350;28;20411;-91
2022/10/02 07:15:27;;;;;;;10.75;9.88;;;;;;;;;;4921105;29;20428;-92
2022/10/02 07:17:56;;;;;;;9.85;9.15;;;;;;;;;;4924972;29;20400;-93
2022/10/02 07:20:28;;;;;;;9.70;8.90;;;;;;;;;;4933189;29;20407;-90
2022/10/02 07:23:00;;;;;;;9.52;8.82;;;;;;;;;;4919143;28;20465;-91
2022/10/02 07:25:29;;;;;;;9.80;8.93;;;;;;;;;;4924313;29;20387;-91
2022/10/02 07:28:01;;;;;;;8.48;7.97;;;;;;;;;;4918254;28;20400;-89
2022/10/02 07:30:32;;;;;;;7.38;6.70;;;;;;;;;;4910483;28;20405;-90
2022/10/02 07:33:07;;;;;;;5.85;5.45;;;;;;;;;;4917360;28;20930;-88
2022/10/02 07:35:40;;;;;;;6.10;5.50;;;;;;;;;;4981299;28;20908;-87
2022/10/02 07:38:06;;;;;;;5.68;4.88;;;;;;;;;;4971912;28;20386;-87
2022/10/02 07:40:52;;;;;;;4.75;4.35;;;;;;;;;;4985226;28;20401;-89
2022/10/02 07:43:37;;;;;;;5.18;4.78;;;;;;;;;;4922954;29;20899;-91
2022/10/02 07:46:09;;;;;;;4.55;4.20;;;;;;;;;;4929506;29;20388;-87
2022/10/02 07:48:42;;;;;;;5.53;4.78;;;;;;;;;;4942261;28;20395;-88
2022/10/02 07:54:30;;;;;;;4.15;3.88;;;;;;;;;;4934461;29;20422;-89
2022/10/02 07:56:58;;;;;;;3.55;3.35;;;;;;;;;;4934846;29;20422;-90
2022/10/02 07:59:25;;;;;;;3.70;3.40;;;;;;;;;;4934681;29;20400;-87
2022/10/02 08:01:51;;;;;;;3.10;2.90;;;;;;;;;;4948738;28;20511;-90
2022/10/02 08:04:18;;;;;;;2.90;2.70;;;;;;;;;;4934609;29;20399;-88
2022/10/02 08:06:46;;;;;;;3.20;2.97;;;;;;;;;;4934830;29;20404;-89
2022/10/02 08:09:15;;;;;;;2.80;2.60;;;;;;;;;;4934789;29;20745;-88
2022/10/02 08:11:48;;;;;;;2.93;2.50;;;;;;;;;;4977065;28;20907;-88
2022/10/02 08:14:21;;;;;;;2.55;2.45;;;;;;;;;;4934584;29;20392;-87
2022/10/02 08:16:48;;;;;;;2.78;2.30;;;;;;;;;;4934938;28;20848;-90
2022/10/02 08:19:16;;;;;;;2.40;2.17;;;;;;;;;;4972636;28;20395;-88
2022/10/02 08:21:48;;;;;;;2.40;2.30;;;;;;;;;;4934041;29;20463;-88
2022/10/02 08:24:18;;;;;;;2.60;2.40;;;;;;;;;;4934393;29;20388;-89
2022/10/02 08:26:51;;;;;;;2.33;2.00;;;;;;;;;;4933557;28;20381;-90
2022/10/02 08:29:30;;;;;;;2.25;2.05;;;;;;;;;;4927554;29;20401;-90
2022/10/02 08:31:56;;;;;;;2.30;2.10;;;;;;;;;;4920335;28;20382;-90
2022/10/02 08:34:23;;;;;;;3.10;2.15;;;;;;;;;;4930142;28;20863;-90
2022/10/02 08:36:52;;;;;;;2.13;2.03;;;;;;;;;;4917078;28;20405;-88
2022/10/02 08:39:21;;;;;;;2.03;1.92;;;;;;;;;;4942166;28;20393;-89
2022/10/02 08:42:14;;;;;;;2.20;2.00;;;;;;;;;;4961144;28;20419;-89
2022/10/02 08:44:52;;;;;;;2.10;1.98;;;;;;;;;;4941632;28;20447;-90
2022/10/02 08:47:27;;;;;;;1.98;1.88;;;;;;;;;;4944631;28;20405;-93
2022/10/02 08:50:13;;;;;;;4.10;3.70;;;;;;;;;;4958120;28;20415;-90
2022/10/02 08:52:45;;;;;;;4.50;4.10;;;;;;;;;;5001652;28;20388;-91
2022/10/02 08:55:18;;;;;;;2.50;2.30;;;;;;;;;;5001326;28;20905;-89
2022/10/02 08:57:47;;;;;;;1.98;1.60;;;;;;;;;;4980649;28;20403;-90
2022/10/02 09:00:25;;;;;;;2.13;1.92;;;;;;;;;;4968441;28;20401;-88
2022/10/02 09:03:03;;;;;;;1.60;1.50;;;;;;;;;;4918072;29;20421;-88
2022/10/02 09:05:54;;;;;;;1.27;1.20;;;;;;;;;;4944802;28;20420;-90
2022/10/02 09:08:20;;;;;;;1.30;1.20;;;;;;;;;;4924276;28;20755;-87
2022/10/02 09:10:51;;;;;;;2.67;1.20;;;;;;;;;;4956208;28;20381;-91
2022/10/02 09:13:50;;;;;;;1.53;1.13;;;;;;;;;;4924618;29;21015;-91
2022/10/02 09:16:29;;;;;;;1.50;1.10;;;;;;;;;;4957758;28;20976;-91
2022/10/02 09:18:59;;;;;;;0.82;0.80;;;;;;;;;;4922805;29;20397;-94
2022/10/02 09:21:31;;;;;;;1.00;0.90;;;;;;;;;;4928513;29;20423;-88
2022/10/02 09:24:19;;;;;;;1.40;0.77;;;;;;;;;;4917443;29;20416;-89
2022/10/02 09:26:48;;;;;;;0.80;0.80;;;;;;;;;;4909273;28;20413;-86
2022/10/02 09:29:35;;;;;;;0.70;0.70;;;;;;;;;;4925805;28;20394;-91
2022/10/02 09:32:04;;;;;;;0.95;0.80;;;;;;;;;;4921211;29;20380;-89
2022/10/02 09:34:51;;;;;;;1.25;0.70;;;;;;;;;;4937346;28;20393;-91
2022/10/02 09:37:23;;;;;;;0.90;0.80;;;;;;;;;;4911149;28;20874;-90
2022/10/02 09:39:55;;;;;;;1.13;0.70;;;;;;;;;;4936173;28;20402;-92
2022/10/02 09:42:32;;;;;;;0.77;0.70;;;;;;;;;;4927531;29;20461;-90
2022/10/02 09:45:16;;;;;;;0.75;0.75;;;;;;;;;;4921586;29;20418;-89
2022/10/02 09:48:03;;;;;;;1.73;0.80;;;;;;;;;;4947793;28;20432;-88
2022/10/02 09:50:32;;;;;;;1.90;0.90;;;;;;;;;;4914836;28;20415;-88
2022/10/02 09:53:17;;;;;;;1.80;1.10;;;;;;;;;;4939992;28;20935;-90
2022/10/02 09:56:02;;;;;;;1.10;1.00;;;;;;;;;;4908528;29;20411;-88
2022/10/02 09:58:28;;;;;;;1.20;1.10;;;;;;;;;;4913038;29;20400;-90
2022/10/02 10:00:56;;;;;;;1.00;1.00;;;;;;;;;;4932991;29;20415;-89
2022/10/02 10:03:35;;;;;;;1.00;0.90;;;;;;;;;;4947510;28;20446;-91
2022/10/02 10:06:01;;;;;;;2.75;1.10;;;;;;;;;;4921027;29;20403;-91
2022/10/02 10:08:39;;;;;;;0.90;0.80;;;;;;;;;;4933001;29;20873;-90
2022/10/02 10:11:31;;;;;;;1.20;0.70;;;;;;;;;;4931995;28;20383;-92
2022/10/02 10:14:03;;;;;;;1.00;0.60;;;;;;;;;;4948005;29;20384;-90
2022/10/02 10:16:29;;;;;;;0.60;0.60;;;;;;;;;;4933161;29;20470;-90
2022/10/02 10:19:07;;;;;;;0.60;0.60;;;;;;;;;;4934667;28;20532;-90
2022/10/02 10:21:45;;;;;;;1.20;0.60;;;;;;;;;;4910618;29;20425;-88
2022/10/02 10:24:30;;;;;;;0.80;0.80;;;;;;;;;;4934258;29;20475;-91
2022/10/02 10:27:08;;;;;;;2.40;0.70;;;;;;;;;;4938272;29;20417;-89
2022/10/02 10:29:36;;;;;;;1.08;1.08;;;;;;;;;;4931392;29;20414;-92
2022/10/02 10:32:22;;;;;;;2.03;0.88;;;;;;;;;;4972238;28;20391;-89
2022/10/02 10:34:55;;;;;;;0.80;0.80;;;;;;;;;;4934761;28;20392;-86
2022/10/02 10:40:44;;;;;;;1.25;0.70;;;;;;;;;;4932679;28;20406;-89
2022/10/02 10:43:31;;;;;;;1.27;0.90;;;;;;;;;;4990430;28;20460;-89
2022/10/02 10:46:04;;;;;;;1.10;1.00;;;;;;;;;;4970647;28;20388;-90
2022/10/02 10:48:30;;;;;;;0.90;0.70;;;;;;;;;;4949418;28;20870;-88
2022/10/02 10:51:13;;;;;;;0.77;0.60;;;;;;;;;;4942123;28;20408;-89
2022/10/02 10:53:57;;;;;;;1.70;0.68;;;;;;;;;;4916348;28;20392;-86
2022/10/02 10:56:34;;;;;;;0.63;0.60;;;;;;;;;;4908959;28;20476;-88
2022/10/02 10:59:06;;;;;;;1.00;0.70;;;;;;;;;;4911475;28;20385;-87
2022/10/02 11:01:38;;;;;;;0.50;0.40;;;;;;;;;;4908087;28;20428;-87
2022/10/02 11:04:12;;;;;;;0.20;0.20;;;;;;;;;;4909621;28;20389;-87
2022/10/02 11:06:51;;;;;;;0.30;0.30;;;;;;;;;;4922633;28;20404;-86
2022/10/02 11:09:22;;;;;;;0.30;0.30;;;;;;;;;;4926597;28;20393;-85
2022/10/02 11:11:49;;;;;;;0.55;0.50;;;;;;;;;;4930083;28;20391;-85
2022/10/02 11:14:34;;;;;;;1.10;0.43;;;;;;;;;;4931894;29;20474;-84
2022/10/02 11:17:00;;;;;;;0.50;0.40;;;;;;;;;;4926181;29;20484;-85
2022/10/02 11:19:49;;;;;;;0.50;0.50;;;;;;;;;;4916076;29;20519;-86
2022/10/02 11:22:21;;;;;;;0.70;0.47;;;;;;;;;;4913040;29;20903;-86
2022/10/02 11:25:09;;;;;;;0.73;0.30;;;;;;;;;;4919374;29;20395;-85
2022/10/02 11:27:40;;;;;;;0.30;0.30;;;;;;;;;;4925730;29;20377;-86
2022/10/02 11:30:22;;;;;;;0.40;0.40;;;;;;;;;;4923807;29;21632;-85
2022/10/02 11:33:09;;;;;;;0.40;0.40;;;;;;;;;;4920272;29;20476;-85
2022/10/02 11:35:50;;;;;;;0.50;0.50;;;;;;;;;;4938652;28;20912;-84
2022/10/02 11:38:23;;;;;;;0.90;0.40;;;;;;;;;;4909115;29;20515;-83
2022/10/02 11:41:08;;;;;;;0.45;0.40;;;;;;;;;;4931175;29;20726;-83
2022/10/02 11:43:39;;;;;;;0.70;0.28;;;;;;;;;;4934698;29;20974;-83
2022/10/02 11:46:24;;;;;;;0.30;0.28;;;;;;;;;;4933469;29;20470;-83
2022/10/02 11:49:09;;;;;;;0.35;0.30;;;;;;;;;;4926904;29;20483;-83
2022/10/02 11:51:37;;;;;;;0.85;0.38;;;;;;;;;;4930965;29;20473;-84
2022/10/02 11:54:06;;;;;;;0.40;0.30;;;;;;;;;;4945776;28;20928;-84
2022/10/02 11:56:32;;;;;;;0.70;0.30;;;;;;;;;;4934654;29;20403;-83
2022/10/02 11:59:07;;;;;;;1.20;0.30;;;;;;;;;;4934648;29;20392;-83
2022/10/02 12:02:01;;;;;;;0.30;0.28;;;;;;;;;;4934340;29;20430;-85
2022/10/02 12:04:39;;;;;;;0.80;0.40;;;;;;;;;;4923497;28;20425;-84
2022/10/02 12:07:05;;;;;;;1.08;0.47;;;;;;;;;;4922601;29;20454;-83
2022/10/02 12:09:34;;;;;;;0.77;0.30;;;;;;;;;;4934532;29;20962;-83
2022/10/02 12:12:21;;;;;;;0.68;0.50;;;;;;;;;;4934269;29;20475;-83
2022/10/02 12:14:50;;;;;;;0.97;0.50;;;;;;;;;;4934507;29;20387;-84
2022/10/02 12:17:22;;;;;;;0.40;0.40;;;;;;;;;;4934388;29;20388;-84
2022/10/02 12:28:55;;;;;;;0.22;0.20;;;;;;;;;;4934189;29;20383;-84
2022/10/02 12:31:49;;;;;;;2.80;2.05;;;;;;;;;;4934202;29;20388;-83
2022/10/02 12:34:34;;;;;;;1.65;0.77;;;;;;;;;;4933746;29;20380;-83
2022/10/02 12:37:09;;;;;;;0.80;0.30;;;;;;;;;;4933949;29;20899;-83
2022/10/02 12:39:54;;;;;;;0.50;0.40;;;;;;;;;;4934121;29;20384;-84
2022/10/02 12:42:31;;;;;;;1.05;0.20;;;;;;;;;;4948492;28;20808;-83
2022/10/02 12:45:02;;;;;;;0.28;0.28;;;;;;;;;;4934115;29;20406;-83
2022/10/02 12:47:49;;;;;;;0.20;0.20;;;;;;;;;;4925587;29;20446;-83
2022/10/02 12:50:20;;;;;;;0.30;0.30;;;;;;;;;;4973072;28;20887;-84
2022/10/02 12:52:49;;;;;;;0.50;0.40;;;;;;;;;;4933811;29;20411;-83
2022/10/02 12:55:34;;;;;;;0.37;0.30;;;;;;;;;;4933967;29;20388;-83
2022/10/02 12:58:16;;;;;;;1.07;0.40;;;;;;;;;;4933796;29;20549;-83
2022/10/02 13:00:56;;;;;;;1.85;0.40;;;;;;;;;;4933407;29;20438;-83
2022/10/02 13:03:44;;;;;;;1.45;0.22;;;;;;;;;;4933172;28;20657;-83
2022/10/02 13:06:30;;;;;;;0.98;0.30;;;;;;;;;;4933644;29;20380;-83
2022/10/02 13:09:07;;;;;;;0.20;0.20;;;;;;;;;;4933928;29;20411;-84
2022/10/02 13:11:36;;;;;;;0.90;0.20;;;;;;;;;;4933497;29;20384;-83
2022/10/02 13:14:02;;;;;;;0.38;0.30;;;;;;;;;;4931441;29;20388;-84
2022/10/02 13:16:47;;;;;;;0.50;0.30;;;;;;;;;;4920050;29;20408;-83
2022/10/02 13:19:16;;;;;;;0.40;0.30;;;;;;;;;;4933460;29;20453;-84
2022/10/02 13:21:51;;;;;;;0.23;0.20;;;;;;;;;;4933369;29;20494;-84
2022/10/02 13:24:26;;;;;;;0.40;0.30;;;;;;;;;;4933525;29;20384;-84
2022/10/02 13:27:07;;;;;;;1.17;0.35;;;;;;;;;;4933315;29;20396;-84
2022/10/02 13:29:41;;;;;;;1.30;0.30;;;;;;;;;;4933387;29;20395;-84
2022/10/02 13:32:10;;;;;;;2.10;0.32;;;;;;;;;;4933117;29;20487;-84
2022/10/02 13:34:36;;;;;;;0.77;0.32;;;;;;;;;;4933247;29;20399;-85
2022/10/02 13:37:11;;;;;;;0.65;0.40;;;;;;;;;;4926859;29;20480;-84
2022/10/02 13:39:45;;;;;;;0.30;0.30;;;;;;;;;;4922523;29;20399;-83
2022/10/02 13:42:20;;;;;;;1.70;0.40;;;;;;;;;;4932927;29;20412;-83
2022/10/02 13:44:47;;;;;;;0.50;0.20;;;;;;;;;;4933277;29;20434;-83
2022/10/02 13:47:22;;;;;;;2.50;0.33;;;;;;;;;;4924646;29;20507;-83
2022/10/02 13:50:07;;;;;;;1.50;0.30;;;;;;;;;;4933185;29;20438;-82
2022/10/02 13:52:55;;;;;;;1.10;0.40;;;;;;;;;;4932853;29;20434;-83
2022/10/02 13:55:24;;;;;;;0.80;0.28;;;;;;;;;;4933033;29;20388;-83
2022/10/02 13:57:59;;;;;;;1.00;0.40;;;;;;;;;;4932806;29;20392;-83
2022/10/02 14:00:37;;;;;;;0.25;0.25;;;;;;;;;;4932583;29;20419;-83
2022/10/02 14:03:26;;;;;;;0.68;0.38;;;;;;;;;;4932752;29;20904;-82
2022/10/02 14:06:15;;;;;;;1.95;0.40;;;;;;;;;;4932819;29;20418;-83
2022/10/02 14:09:00;;;;;;;0.90;0.50;;;;;;;;;;4947727;29;20898;-83
2022/10/02 14:11:34;;;;;;;0.97;0.30;;;;;;;;;;4932555;29;20398;-83
2022/10/02 14:14:03;;;;;;;0.80;0.30;;;;;;;;;;4932702;29;20400;-83
2022/10/02 14:16:29;;;;;;;1.00;0.28;;;;;;;;;;4932600;29;20392;-83
2022/10/02 14:18:55;;;;;;;1.10;0.30;;;;;;;;;;4932599;29;20416;-83
2022/10/02 14:21:51;;;;;;;0.30;0.30;;;;;;;;;;4932464;29;20419;-83
2022/10/02 14:24:17;;;;;;;0.38;0.30;;;;;;;;;;4948574;28;20479;-83
2022/10/02 14:26:52;;;;;;;0.52;0.28;;;;;;;;;;4932442;29;20471;-83
2022/10/02 14:29:19;;;;;;;0.50;0.30;;;;;;;;;;4932705;29;20474;-83
2022/10/02 14:32:01;;;;;;;0.30;0.30;;;;;;;;;;4932275;29;20395;-83
2022/10/02 14:34:33;;;;;;;0.38;0.20;;;;;;;;;;4932645;29;20490;-83
2022/10/02 14:37:17;;;;;;;1.20;0.30;;;;;;;;;;4932318;29;20404;-83
2022/10/02 14:39:44;;;;;;;0.90;0.30;;;;;;;;;;4932344;29;20403;-82
2022/10/02 14:42:29;;;;;;;0.45;0.10;;;;;;;;;;4932164;29;20451;-83
2022/10/02 14:44:59;;;;;;;3.10;0.30;;;;;;;;;;4932415;29;20387;-83
2022/10/02 14:47:25;;;;;;;0.90;0.20;;;;;;;;;;4923940;29;20415;-84
2022/10/02 14:50:06;;;;;;;0.93;0.20;;;;;;;;;;4932231;29;20807;-82
2022/10/02 14:52:35;;;;;;;1.08;0.30;;;;;;;;;;4932153;29;20864;-83
2022/10/02 14:55:01;;;;;;;1.08;0.50;;;;;;;;;;4932143;29;20877;-83
2022/10/02 14:57:27;;;;;;;2.70;0.75;;;;;;;;;;4932737;29;20451;-84
2022/10/02 15:00:02;;;;;;;1.10;0.40;;;;;;;;;;4935469;29;20900;-83
2022/10/02 15:02:28;;;;;;;1.60;0.30;;;;;;;;;;4935222;29;20499;-82
2022/10/02 15:05:00;;;;;;;0.45;0.30;;;;;;;;;;4935349;29;20475;-82
2022/10/02 15:07:27;;;;;;;0.82;0.30;;;;;;;;;;4935426;29;20392;-83
2022/10/02 15:09:53;;;;;;;1.50;0.30;;;;;;;;;;4935326;29;20416;-83
2022/10/02 15:12:21;;;;;;;2.03;0.38;;;;;;;;;;4933586;29;20419;-83
2022/10/02 15:14:47;;;;;;;1.10;0.30;;;;;;;;;;4931193;29;20471;-83
2022/10/02 15:20:32;;;;;;;3.53;0.50;;;;;;;;;;4935111;29;20398;-83
2022/10/02 15:22:59;;;;;;;1.73;0.30;;;;;;;;;;4935078;29;20498;-83
2022/10/02 15:25:44;;;;;;;0.90;0.37;;;;;;;;;;4935142;29;20392;-83
2022/10/02 15:28:26;;;;;;;0.40;0.40;;;;;;;;;;4935092;29;20380;-83
2022/10/02 15:30:56;;;;;;;2.50;0.30;;;;;;;;;;4935180;29;20864;-83
2022/10/02 15:33:39;;;;;;;0.40;0.40;;;;;;;;;;4935032;29;20396;-83
2022/10/02 15:36:08;;;;;;;0.80;0.35;;;;;;;;;;4949934;29;20395;-83
2022/10/02 15:38:47;;;;;;;1.23;0.40;;;;;;;;;;4916888;29;20993;-83
2022/10/02 15:41:30;;;;;;;1.45;0.40;;;;;;;;;;4920995;29;20452;-82
2022/10/02 15:44:09;;;;;;;0.88;0.50;;;;;;;;;;4946307;29;20404;-83
2022/10/02 15:46:44;;;;;;;0.55;0.30;;;;;;;;;;4929785;29;20381;-82
2022/10/02 15:49:13;;;;;;;0.60;0.50;;;;;;;;;;4947623;29;20511;-83
2022/10/02 15:51:42;;;;;;;1.65;0.50;;;;;;;;;;4934679;29;20396;-82
2022/10/02 15:54:11;;;;;;;0.50;0.22;;;;;;;;;;4940034;28;20901;-85
2022/10/02 15:56:43;;;;;;;1.45;0.65;;;;;;;;;;4981963;28;20757;-84
2022/10/02 15:59:21;;;;;;;1.05;0.60;;;;;;;;;;4926993;28;20411;-86
2022/10/02 16:01:57;;;;;;;1.80;0.50;;;;;;;;;;4925855;28;20524;-84
2022/10/02 16:04:23;;;;;;;0.95;0.32;;;;;;;;;;4967751;28;20410;-85
2022/10/02 16:06:52;;;;;;;1.33;0.50;;;;;;;;;;4941510;28;20463;-84
2022/10/02 16:09:21;;;;;;;0.75;0.50;;;;;;;;;;4912412;29;20412;-87
2022/10/02 16:11:47;;;;;;;1.30;0.40;;;;;;;;;;4921105;29;20396;-85
2022/10/02 16:14:31;;;;;;;2.10;0.60;;;;;;;;;;4933672;29;20537;-88
2022/10/02 16:17:08;;;;;;;1.00;0.40;;;;;;;;;;4922891;29;20408;-86
2022/10/02 16:19:43;;;;;;;0.98;0.47;;;;;;;;;;4922115;29;20872;-86
2022/10/02 16:22:15;;;;;;;1.50;0.47;;;;;;;;;;4928375;29;20957;-85
2022/10/02 16:24:57;;;;;;;2.00;1.40;;;;;;;;;;4930733;29;20384;-84
2022/10/02 16:27:34;;;;;;;1.15;0.60;;;;;;;;;;4933533;29;20420;-85
2022/10/02 16:30:14;;;;;;;1.73;0.52;;;;;;;;;;4933668;29;20384;-85
2022/10/02 16:32:43;;;;;;;1.13;0.47;;;;;;;;;;4933488;29;20480;-85
2022/10/02 16:35:19;;;;;;;3.33;0.40;;;;;;;;;;4933489;29;20396;-84
2022/10/02 16:37:58;;;;;;;1.47;0.43;;;;;;;;;;4933974;29;20738;-84
2022/10/02 16:40:43;;;;;;;0.90;0.60;;;;;;;;;;4933774;29;20394;-89
2022/10/02 16:43:27;;;;;;;1.42;0.90;;;;;;;;;;4933639;29;20411;-85
2022/10/02 16:46:10;;;;;;;1.65;0.70;;;;;;;;;;4933765;29;20379;-87
2022/10/02 16:48:40;;;;;;;2.00;0.70;;;;;;;;;;4933830;29;20887;-88
2022/10/02 16:51:10;;;;;;;1.33;0.60;;;;;;;;;;4942201;28;20499;-84
2022/10/02 16:53:42;;;;;;;2.10;0.60;;;;;;;;;;4932368;29;20485;-84
2022/10/02 16:56:11;;;;;;;1.17;0.50;;;;;;;;;;4924450;28;20401;-85
2022/10/02 16:58:46;;;;;;;1.58;0.50;;;;;;;;;;4915544;28;20467;-83
2022/10/02 17:01:24;;;;;;;2.20;0.65;;;;;;;;;;4930971;29;20412;-84
2022/10/02 17:03:50;;;;;;;1.38;0.60;;;;;;;;;;4926858;28;20484;-87
2022/10/02 17:06:25;;;;;;;1.27;0.45;;;;;;;;;;4921609;28;20400;-87
2022/10/02 17:08:52;;;;;;;1.85;0.68;;;;;;;;;;4937178;28;20421;-87
2022/10/02 17:11:26;;;;;;;2.20;0.70;;;;;;;;;;4952865;28;20386;-87
2022/10/02 17:13:53;;;;;;;1.70;0.70;;;;;;;;;;4964123;28;20472;-90
2022/10/02 17:16:34;;;;;;;1.90;0.60;;;;;;;;;;4928670;28;20884;-91
2022/10/02 17:19:03;;;;;;;1.70;0.60;;;;;;;;;;4956686;28;20426;-89
2022/10/02 17:21:52;;;;;;;1.10;0.60;;;;;;;;;;4923615;28;20408;-91
2022/10/02 17:24:30;;;;;;;1.42;0.55;;;;;;;;;;4930279;28;20413;-90
2022/10/02 17:27:06;;;;;;;1.80;0.50;;;;;;;;;;4915228;28;20393;-91
2022/10/02 17:29:35;;;;;;;1.17;0.50;;;;;;;;;;4912083;28;20405;-88
2022/10/02 17:32:01;;;;;;;1.83;0.80;;;;;;;;;;4914252;29;20405;-89
2022/10/02 17:34:32;;;;;;;1.85;0.80;;;;;;;;;;4914780;29;20825;-89
2022/10/02 17:37:01;;;;;;;1.58;0.52;;;;;;;;;;4919880;28;20431;-90
2022/10/02 17:39:47;;;;;;;0.95;0.50;;;;;;;;;;4921609;28;20480;-87
2022/10/02 17:42:19;;;;;;;1.90;0.60;;;;;;;;;;4914263;28;20712;-89
2022/10/02 17:44:45;;;;;;;1.07;0.50;;;;;;;;;;4914748;28;20392;-89
2022/10/02 17:47:11;;;;;;;1.83;0.70;;;;;;;;;;4914308;28;20389;-89
2022/10/02 17:49:37;;;;;;;3.70;1.00;;;;;;;;;;4913116;28;20984;-88
2022/10/02 17:56:26;;;;;;;1.77;0.60;;;;;;;;;;4918264;28;20396;-89
2022/10/02 17:57:49;;;;;;;0.90;0.47;;;;;;;;;;4923741;28;20412;-90
2022/10/02 18:00:20;;;;;;;1.63;0.50;;;;;;;;;;4924984;28;20386;-90
2022/10/02 18:03:04;;;;;;;1.15;0.60;;;;;;;;;;4916003;28;20467;-91
2022/10/02 18:05:48;;;;;;;1.90;0.90;;;;;;;;;;4927303;28;20397;-92
2022/10/02 18:08:17;;;;;;;3.05;0.90;;;;;;;;;;4913967;28;20385;-91
2022/10/02 18:10:55;;;;;;;2.13;0.70;;;;;;;;;;4922812;28;20460;-90
2022/10/02 18:13:31;;;;;;;1.60;0.70;;;;;;;;;;4918422;28;20405;-90
2022/10/02 18:16:06;;;;;;;1.40;0.70;;;;;;;;;;4920178;28;20399;-89
2022/10/02 18:18:34;;;;;;;0.52;0.43;;;;;;;;;;4931596;29;20542;-89
2022/10/02 18:21:08;;;;;;;1.73;0.60;;;;;;;;;;4932209;29;20884;-91
2022/10/02 18:23:34;;;;;;;1.52;0.70;;;;;;;;;;4932588;29;20428;-89
2022/10/02 18:26:01;;;;;;;1.20;0.60;;;;;;;;;;4932536;29;20394;-88
2022/10/02 18:28:39;;;;;;;3.08;0.50;;;;;;;;;;4932557;29;20396;-90
2022/10/02 18:31:09;;;;;;;1.13;0.60;;;;;;;;;;4946944;28;20888;-90
2022/10/02 18:33:43;;;;;;;2.13;0.70;;;;;;;;;;4941411;28;20401;-88
2022/10/02 18:36:18;;;;;;;3.72;0.90;;;;;;;;;;4926892;29;20412;-90
2022/10/02 18:39:05;;;;;;;2.10;0.73;;;;;;;;;;4912890;28;20396;-89
2022/10/02 18:41:50;;;;;;;1.67;0.60;;;;;;;;;;4929356;28;20383;-91
2022/10/02 18:44:28;;;;;;;1.00;0.60;;;;;;;;;;4938322;28;20866;-88
2022/10/02 18:47:06;;;;;;;2.63;0.90;;;;;;;;;;4910610;28;20488;-88
2022/10/02 18:49:34;;;;;;;1.73;0.70;;;;;;;;;;4908112;29;20531;-87
2022/10/02 18:52:06;;;;;;;1.13;0.70;;;;;;;;;;4914599;29;20417;-87
2022/10/02 18:54:51;;;;;;;1.98;0.60;;;;;;;;;;4908918;29;20389;-88
2022/10/02 18:57:18;;;;;;;1.90;0.60;;;;;;;;;;4903063;29;20417;-87
2022/10/02 18:59:44;;;;;;;1.90;0.60;;;;;;;;;;4911168;29;20410;-87
2022/10/02 19:02:25;;;;;;;1.95;0.70;;;;;;;;;;4908268;29;20450;-83
2022/10/02 19:04:59;;;;;;;1.85;0.60;;;;;;;;;;4903834;29;20409;-83
2022/10/02 19:07:36;;;;;;;1.95;0.65;;;;;;;;;;4913568;28;20407;-84
2022/10/02 19:10:20;;;;;;;2.03;0.52;;;;;;;;;;4908072;29;20508;-83
2022/10/02 19:12:47;;;;;;;1.15;0.60;;;;;;;;;;4911913;29;20416;-83
2022/10/02 19:15:19;;;;;;;1.15;0.50;;;;;;;;;;4905757;29;20448;-83
2022/10/02 19:17:56;;;;;;;0.73;0.47;;;;;;;;;;4912602;29;20413;-83
2022/10/02 19:20:43;;;;;;;1.25;0.45;;;;;;;;;;4919586;29;20884;-84
2022/10/02 19:23:15;;;;;;;1.50;0.60;;;;;;;;;;4915269;28;20487;-83
2022/10/02 19:25:49;;;;;;;1.13;0.50;;;;;;;;;;4915224;29;20411;-84
2022/10/02 19:28:17;;;;;;;1.90;0.50;;;;;;;;;;4928811;28;20815;-83
2022/10/02 19:30:46;;;;;;;1.33;0.52;;;;;;;;;;4904045;29;20496;-83
2022/10/02 19:33:18;;;;;;;1.83;0.60;;;;;;;;;;4923516;29;20398;-83
2022/10/02 19:35:45;;;;;;;1.20;0.60;;;;;;;;;;4908772;29;20416;-83
2022/10/02 19:38:28;;;;;;;2.03;0.60;;;;;;;;;;4923022;28;20425;-83
2022/10/02 19:40:57;;;;;;;1.00;0.55;;;;;;;;;;4908813;29;20410;-83
2022/10/02 19:43:27;;;;;;;1.75;0.70;;;;;;;;;;4908797;29;20418;-83